createdAt,value
2016-03-12T00:00:19.829Z,6.7
2016-03-12T00:01:19.784Z,6.75
2016-03-12T00:02:19.740Z,6.7
2016-03-12T00:03:19.681Z,6.69
2016-03-12T00:04:19.620Z,6.67
2016-03-12T00:05:19.576Z,6.74
2016-03-12T00:06:19.569Z,6.69
2016-03-12T00:07:19.450Z,6.64
2016-03-12T00:08:19.398Z,6.62
2016-03-12T00:09:19.338Z,6.6
2016-03-12T00:10:19.293Z,6.72
2016-03-12T00:11:19.219Z,6.67
2016-03-12T00:12:19.159Z,6.54
2016-03-12T00:13:19.131Z,6.48
2016-03-12T00:14:18.883Z,6.64
2016-03-12T00:15:18.995Z,6.64
2016-03-12T00:16:18.950Z,6.7
2016-03-12T00:17:18.704Z,6.66
2016-03-12T00:18:18.815Z,6.72
2016-03-12T00:19:18.756Z,6.66
2016-03-12T00:20:18.695Z,6.69
2016-03-12T00:21:18.698Z,6.64
2016-03-12T00:22:18.608Z,6.6
2016-03-12T00:23:18.547Z,6.49
2016-03-12T00:24:18.519Z,6.46
2016-03-12T00:25:18.428Z,6.52
2016-03-12T00:26:18.353Z,6.59
2016-03-12T00:27:18.308Z,6.62
2016-03-12T00:28:18.249Z,6.69
2016-03-12T00:29:18.204Z,6.66
2016-03-12T00:30:18.161Z,6.69
2016-03-12T00:31:18.085Z,6.69
2016-03-12T00:32:18.072Z,6.74
2016-03-12T00:33:17.965Z,6.64
2016-03-12T00:34:17.952Z,6.67
2016-03-12T00:35:17.861Z,6.62
2016-03-12T00:36:17.833Z,6.63
2016-03-12T00:37:17.757Z,6.62
2016-03-12T00:38:17.698Z,6.66
2016-03-12T00:39:17.638Z,6.72
2016-03-12T00:40:17.578Z,6.67
2016-03-12T00:41:17.518Z,6.63
2016-03-12T00:42:17.458Z,6.67
2016-03-12T00:43:17.586Z,6.6
2016-03-12T00:44:17.354Z,6.52
2016-03-12T00:45:17.295Z,6.52
2016-03-12T00:46:17.234Z,6.51
2016-03-12T00:47:17.175Z,6.46
2016-03-12T00:48:17.114Z,6.52
2016-03-12T00:49:17.071Z,6.62
2016-03-12T00:50:17.011Z,6.62
2016-03-12T00:51:16.983Z,6.63
2016-03-12T00:52:17.095Z,6.72
2016-03-12T00:53:16.879Z,6.69
2016-03-12T00:54:16.787Z,6.67
2016-03-12T00:55:16.728Z,6.7
2016-03-12T00:56:16.683Z,6.62
2016-03-12T00:57:16.608Z,6.7
2016-03-12T00:58:16.564Z,6.7
2016-03-12T00:59:16.504Z,6.64
2016-03-12T01:00:16.460Z,6.64
2016-03-12T01:01:16.416Z,6.7
2016-03-12T01:02:16.324Z,6.67
2016-03-12T01:03:16.296Z,6.78
2016-03-12T01:04:16.252Z,6.78
2016-03-12T01:05:16.160Z,6.74
2016-03-12T01:06:16.117Z,6.67
2016-03-12T01:07:16.072Z,6.77
2016-03-12T01:08:16.013Z,6.75
2016-03-12T01:09:15.937Z,6.75
2016-03-12T01:10:15.909Z,6.7
2016-03-12T01:11:15.833Z,6.62
2016-03-12T01:12:15.774Z,6.6
2016-03-12T01:13:15.713Z,6.62
2016-03-12T01:14:15.654Z,6.63
2016-03-12T01:15:15.625Z,6.67
2016-03-12T01:16:15.550Z,6.67
2016-03-12T01:17:15.490Z,6.72
2016-03-12T01:18:15.446Z,6.63
2016-03-12T01:19:15.370Z,6.7
2016-03-12T01:20:15.326Z,6.67
2016-03-12T01:21:15.267Z,6.74
2016-03-12T01:22:15.191Z,6.74
2016-03-12T01:23:15.147Z,6.82
2016-03-12T01:24:15.117Z,6.72
2016-03-12T01:25:15.058Z,6.79
2016-03-12T01:26:14.998Z,6.82
2016-03-12T01:27:14.939Z,6.77
2016-03-12T01:28:14.878Z,6.81
2016-03-12T01:29:14.819Z,6.75
2016-03-12T01:30:14.775Z,6.72
2016-03-12T01:31:14.716Z,6.69
2016-03-12T01:32:14.655Z,6.63
2016-03-12T01:33:14.627Z,6.64
2016-03-12T01:34:14.536Z,6.64
2016-03-12T01:35:14.491Z,6.63
2016-03-12T01:36:14.447Z,6.64
2016-03-12T01:37:14.387Z,6.63
2016-03-12T01:38:14.312Z,6.64
2016-03-12T01:39:14.252Z,6.67
2016-03-12T01:40:14.193Z,6.72
2016-03-12T01:41:14.179Z,6.69
2016-03-12T01:42:14.104Z,6.7
2016-03-12T01:43:14.028Z,6.75
2016-03-12T01:44:14.015Z,6.78
2016-03-12T01:45:13.924Z,6.67
2016-03-12T01:46:13.865Z,6.78
2016-03-12T01:47:13.804Z,6.75
2016-03-12T01:48:13.762Z,6.77
2016-03-12T01:49:13.701Z,6.75
2016-03-12T01:50:13.657Z,6.64
2016-03-12T01:51:13.581Z,6.69
2016-03-12T01:52:13.537Z,6.64
2016-03-12T01:53:13.478Z,6.56
2016-03-12T01:54:13.434Z,6.59
2016-03-12T01:55:13.389Z,6.59
2016-03-12T01:56:13.297Z,6.74
2016-03-12T01:57:13.253Z,6.75
2016-03-12T01:58:13.194Z,6.64
2016-03-12T01:59:13.166Z,6.67
2016-03-12T02:00:13.089Z,6.64
2016-03-12T02:01:13.030Z,6.64
2016-03-12T02:02:12.986Z,6.74
2016-03-12T02:03:12.939Z,6.78
2016-03-12T02:04:12.848Z,6.67
2016-03-12T02:05:12.788Z,6.54
2016-03-12T02:06:12.728Z,6.57
2016-03-12T02:07:12.684Z,6.56
2016-03-12T02:08:12.656Z,6.62
2016-03-12T02:09:12.565Z,6.63
2016-03-12T02:10:12.521Z,6.62
2016-03-12T02:11:12.445Z,6.62
2016-03-12T02:12:12.416Z,6.57
2016-03-12T02:13:12.326Z,6.62
2016-03-12T02:14:12.266Z,6.66
2016-03-12T02:15:12.221Z,6.59
2016-03-12T02:16:12.162Z,6.64
2016-03-12T02:17:12.102Z,6.51
2016-03-12T02:18:12.058Z,6.39
2016-03-12T02:19:12.013Z,6.16
2016-03-12T02:20:11.922Z,6.33
2016-03-12T02:21:11.909Z,6.44
2016-03-12T02:22:11.834Z,6.39
2016-03-12T02:23:11.743Z,6.22
2016-03-12T02:24:11.714Z,6.38
2016-03-12T02:25:11.639Z,6.42
2016-03-12T02:26:11.610Z,6.39
2016-03-12T02:27:11.566Z,6.42
2016-03-12T02:28:11.475Z,6.36
2016-03-12T02:29:11.430Z,6.42
2016-03-12T02:30:11.356Z,6.46
2016-03-12T02:31:11.295Z,6.51
2016-03-12T02:32:11.252Z,6.51
2016-03-12T02:33:11.207Z,6.42
2016-03-12T02:34:11.116Z,6.42
2016-03-12T02:35:11.087Z,6.35
2016-03-12T02:36:11.028Z,6.52
2016-03-12T02:37:10.968Z,6.54
2016-03-12T02:38:10.877Z,6.42
2016-03-12T02:39:10.848Z,6.27
2016-03-12T02:40:10.788Z,6.44
2016-03-12T02:41:10.729Z,6.44
2016-03-12T02:42:10.668Z,6.39
2016-03-12T02:43:10.609Z,6.35
2016-03-12T02:44:10.580Z,6.39
2016-03-12T02:45:10.490Z,6.38
2016-03-12T02:46:10.492Z,6.41
2016-03-12T02:47:10.401Z,6.49
2016-03-12T02:48:10.340Z,6.48
2016-03-12T02:49:10.282Z,6.3
2016-03-12T02:50:10.237Z,6.42
2016-03-12T02:51:10.162Z,6.3
2016-03-12T02:52:10.101Z,6.3
2016-03-12T02:53:10.058Z,6.33
2016-03-12T02:54:09.997Z,6.36
2016-03-12T02:55:09.923Z,6.42
2016-03-12T02:56:09.909Z,6.24
2016-03-12T02:57:09.819Z,6.41
2016-03-12T02:58:09.743Z,6.38
2016-03-12T02:59:09.700Z,6.35
2016-03-12T03:00:09.623Z,6.39
2016-03-12T03:01:09.594Z,6.38
2016-03-12T03:02:09.519Z,6.42
2016-03-12T03:03:09.475Z,6.44
2016-03-12T03:04:09.431Z,6.52
2016-03-12T03:05:09.340Z,6.52
2016-03-12T03:06:09.296Z,6.36
2016-03-12T03:07:09.236Z,6.12
2016-03-12T03:08:09.192Z,6.09
2016-03-12T03:09:09.101Z,6.01
2016-03-12T03:10:09.057Z,6.17
2016-03-12T03:11:09.013Z,6.14
2016-03-12T03:12:08.938Z,6.2
2016-03-12T03:13:08.908Z,6.33
2016-03-12T03:14:08.832Z,6.24
2016-03-12T03:15:08.788Z,6.33
2016-03-12T03:16:08.745Z,6.17
2016-03-12T03:17:08.654Z,6.12
2016-03-12T03:18:08.609Z,5.97
2016-03-12T03:19:08.549Z,6.19
2016-03-12T03:20:08.489Z,6.11
2016-03-12T03:21:08.446Z,6.11
2016-03-12T03:22:08.370Z,6.05
2016-03-12T03:23:08.529Z,6.14
2016-03-12T03:24:08.267Z,6.12
2016-03-12T03:25:08.206Z,6.2
2016-03-12T03:26:08.147Z,6.19
2016-03-12T03:27:08.070Z,6.12
2016-03-12T03:28:08.042Z,6.12
2016-03-12T03:29:07.967Z,6.02
2016-03-12T03:30:07.923Z,5.93
2016-03-12T03:31:07.863Z,6.07
2016-03-12T03:32:07.772Z,5.89
2016-03-12T03:33:07.744Z,6.07
2016-03-12T03:34:07.684Z,6.04
2016-03-12T03:35:07.624Z,6.04
2016-03-12T03:36:07.564Z,6.14
2016-03-12T03:37:07.505Z,6.17
2016-03-12T03:38:07.444Z,6.17
2016-03-12T03:39:07.369Z,6.14
2016-03-12T03:40:07.340Z,6.17
2016-03-12T03:41:07.281Z,6.16
2016-03-12T03:42:07.205Z,6.09
2016-03-12T03:43:07.161Z,6.12
2016-03-12T03:44:07.085Z,6.19
2016-03-12T03:45:07.041Z,6.3
2016-03-12T03:46:06.966Z,6.27
2016-03-12T03:47:06.938Z,6.35
2016-03-12T03:48:06.862Z,6.19
2016-03-12T03:49:06.818Z,6.31
2016-03-12T03:50:06.758Z,6.22
2016-03-12T03:51:06.698Z,6.16
2016-03-12T03:52:06.653Z,6.16
2016-03-12T03:53:06.578Z,6.08
2016-03-12T03:54:06.503Z,6.17
2016-03-12T03:55:06.475Z,6.24
2016-03-12T03:56:06.398Z,6.22
2016-03-12T03:57:06.339Z,6.17
2016-03-12T03:58:06.295Z,5.94
2016-03-12T03:59:06.236Z,5.76
2016-03-12T04:00:06.206Z,5.91
2016-03-12T04:01:06.116Z,5.68
2016-03-12T04:02:06.056Z,5.87
2016-03-12T04:03:06.012Z,5.89
2016-03-12T04:04:05.920Z,5.99
2016-03-12T04:05:05.876Z,5.89
2016-03-12T04:06:05.833Z,5.99
2016-03-12T04:07:05.757Z,5.99
2016-03-12T04:08:05.697Z,5.99
2016-03-12T04:09:05.652Z,5.93
2016-03-12T04:10:05.608Z,6.02
2016-03-12T04:11:05.533Z,5.68
2016-03-12T04:12:05.474Z,5.84
2016-03-12T04:13:05.413Z,5.91
2016-03-12T04:14:05.369Z,5.94
2016-03-12T04:15:05.279Z,5.79
2016-03-12T04:16:05.249Z,5.94
2016-03-12T04:17:05.190Z,6.14
2016-03-12T04:18:05.114Z,6.11
2016-03-12T04:19:05.086Z,6.14
2016-03-12T04:20:05.010Z,6.09
2016-03-12T04:21:04.966Z,6.12
2016-03-12T04:22:04.922Z,5.98
2016-03-12T04:23:04.846Z,5.72
2016-03-12T04:24:04.771Z,5.84
2016-03-12T04:25:04.711Z,5.93
2016-03-12T04:26:04.652Z,6.02
2016-03-12T04:27:04.592Z,6.08
2016-03-12T04:28:04.548Z,6.05
2016-03-12T04:29:04.487Z,6.12
2016-03-12T04:30:04.444Z,6.12
2016-03-12T04:31:04.384Z,6.12
2016-03-12T04:32:04.309Z,6.12
2016-03-12T04:33:04.280Z,6.05
2016-03-12T04:34:04.204Z,5.98
2016-03-12T04:35:04.144Z,6.09
2016-03-12T04:36:04.085Z,6.2
2016-03-12T04:37:04.025Z,6.07
2016-03-12T04:38:03.965Z,5.9
2016-03-12T04:39:03.906Z,5.99
2016-03-12T04:40:03.846Z,6.16
2016-03-12T04:41:03.802Z,5.93
2016-03-12T04:42:03.741Z,6.19
2016-03-12T04:43:03.666Z,5.84
2016-03-12T04:44:03.607Z,5.91
2016-03-12T04:45:03.577Z,5.8
2016-03-12T04:46:03.518Z,5.9
2016-03-12T04:47:03.457Z,5.9
2016-03-12T04:48:03.399Z,5.98
2016-03-12T04:49:03.338Z,5.87
2016-03-12T04:50:03.310Z,5.71
2016-03-12T04:51:03.204Z,5.86
2016-03-12T04:52:03.175Z,5.89
2016-03-12T04:53:03.115Z,5.98
2016-03-12T04:54:03.039Z,6.09
2016-03-12T04:55:02.979Z,6.02
2016-03-12T04:56:02.951Z,6.04
2016-03-12T04:57:02.860Z,6.07
2016-03-12T04:58:02.801Z,6.17
2016-03-12T04:59:02.772Z,6.19
2016-03-12T05:00:02.681Z,6.19
2016-03-12T05:01:02.653Z,5.94
2016-03-12T05:02:02.576Z,5.94
2016-03-12T05:03:02.533Z,6.07
2016-03-12T05:04:02.457Z,6.02
2016-03-12T05:05:02.397Z,5.87
2016-03-12T05:06:02.369Z,6.04
2016-03-12T05:07:02.327Z,5.93
2016-03-12T05:08:02.235Z,5.98
2016-03-12T05:09:02.176Z,5.89
2016-03-12T05:10:02.115Z,5.9
2016-03-12T05:11:02.071Z,5.84
2016-03-12T05:12:01.995Z,5.89
2016-03-12T05:13:01.983Z,6.05
2016-03-12T05:14:01.892Z,5.93
2016-03-12T05:15:01.817Z,6.01
2016-03-12T05:16:01.787Z,5.86
2016-03-12T05:17:01.712Z,5.87
2016-03-12T05:18:01.569Z,5.68
2016-03-12T05:19:01.557Z,5.79
2016-03-12T05:20:01.500Z,5.9
2016-03-12T05:21:01.442Z,5.9
2016-03-12T05:22:01.353Z,5.79
2016-03-12T05:23:01.300Z,5.73
2016-03-12T05:24:01.251Z,5.84
2016-03-12T05:25:01.156Z,5.84
2016-03-12T05:26:01.091Z,5.86
2016-03-12T05:27:01.073Z,5.86
2016-03-12T05:28:00.979Z,5.97
2016-03-12T05:29:00.918Z,5.91
2016-03-12T05:30:00.871Z,5.98
2016-03-12T05:31:00.794Z,5.64
2016-03-12T05:32:00.732Z,5.73
2016-03-12T05:33:00.686Z,5.84
2016-03-12T05:34:00.626Z,5.97
2016-03-12T05:35:00.581Z,6.01
2016-03-12T05:36:00.488Z,6.07
2016-03-12T05:37:00.443Z,6.09
2016-03-12T05:38:00.384Z,6.04
2016-03-12T05:39:00.324Z,6.12
2016-03-12T05:40:00.264Z,5.98
2016-03-12T05:41:00.221Z,5.82
2016-03-12T05:42:00.145Z,5.97
2016-03-12T05:43:00.101Z,5.8
2016-03-12T05:44:00.056Z,6.01
2016-03-12T05:44:59.965Z,6.16
2016-03-12T05:45:59.953Z,6.22
2016-03-12T05:46:59.892Z,6.09
2016-03-12T05:47:59.801Z,6.24
2016-03-12T05:48:59.772Z,6.14
2016-03-12T05:49:59.713Z,6.22
2016-03-12T05:50:59.653Z,6.26
2016-03-12T05:51:59.593Z,6.31
2016-03-12T05:52:59.533Z,6.33
2016-03-12T05:53:59.474Z,6.31
2016-03-12T05:54:59.414Z,6.31
2016-03-12T05:55:59.354Z,6.27
2016-03-12T05:56:59.294Z,6.35
2016-03-12T05:57:59.094Z,6.44
2016-03-12T05:58:59.222Z,6.35
2016-03-12T05:59:59.146Z,6.39
2016-03-12T06:00:59.101Z,6.38
2016-03-12T06:01:59.043Z,6.42
2016-03-12T06:02:58.967Z,6.41
2016-03-12T06:03:58.923Z,6.42
2016-03-12T06:04:58.848Z,6.38
2016-03-12T06:05:58.663Z,6.48
2016-03-12T06:06:58.743Z,6.44
2016-03-12T06:07:58.684Z,6.48
2016-03-12T06:08:58.623Z,6.51
2016-03-12T06:09:58.564Z,6.45
2016-03-12T06:10:58.520Z,6.56
2016-03-12T06:11:58.459Z,6.45
2016-03-12T06:12:58.400Z,6.52
2016-03-12T06:13:58.355Z,6.44
2016-03-12T06:14:58.296Z,6.46
2016-03-12T06:15:58.236Z,6.51
2016-03-12T06:16:58.176Z,6.49
2016-03-12T06:17:58.117Z,6.46
2016-03-12T06:18:58.072Z,6.52
2016-03-12T06:19:58.013Z,6.42
2016-03-12T06:20:57.968Z,6.39
2016-03-12T06:21:57.924Z,6.36
2016-03-12T06:22:57.833Z,6.33
2016-03-12T06:23:57.789Z,6.41
2016-03-12T06:24:57.729Z,6.42
2016-03-12T06:25:57.654Z,6.41
2016-03-12T06:26:57.625Z,6.48
2016-03-12T06:27:57.550Z,6.39
2016-03-12T06:28:57.505Z,6.52
2016-03-12T06:29:57.461Z,6.31
2016-03-12T06:30:57.433Z,6.42
2016-03-12T06:31:57.341Z,6.41
2016-03-12T06:32:57.282Z,6.26
2016-03-12T06:33:57.221Z,6.38
2016-03-12T06:34:57.179Z,6.26
2016-03-12T06:35:57.087Z,6.38
2016-03-12T06:36:57.059Z,6.38
2016-03-12T06:37:56.967Z,6.42
2016-03-12T06:38:56.954Z,6.35
2016-03-12T06:39:56.848Z,6.19
2016-03-12T06:40:56.803Z,6.19
2016-03-12T06:41:56.759Z,6.33
2016-03-12T06:42:56.700Z,6.31
2016-03-12T06:43:56.656Z,6.36
2016-03-12T06:44:56.611Z,6.44
2016-03-12T06:45:56.536Z,6.35
2016-03-12T06:46:56.476Z,6.45
2016-03-12T06:47:56.417Z,6.38
2016-03-12T06:48:56.372Z,6.46
2016-03-12T06:49:56.374Z,6.49
2016-03-12T06:50:56.252Z,6.45
2016-03-12T06:51:56.208Z,6.52
2016-03-12T06:52:56.117Z,6.42
2016-03-12T06:53:56.088Z,6.48
2016-03-12T06:54:56.044Z,6.54
2016-03-12T06:55:55.953Z,6.36
2016-03-12T06:56:55.908Z,6.36
2016-03-12T06:57:55.865Z,6.41
2016-03-12T06:58:55.788Z,6.49
2016-03-12T06:59:55.746Z,6.41
2016-03-12T07:00:55.701Z,6.54
2016-03-12T07:01:55.610Z,6.39
2016-03-12T07:02:55.565Z,6.39
2016-03-12T07:03:55.537Z,6.44
2016-03-12T07:04:55.446Z,6.46
2016-03-12T07:05:55.401Z,6.46
2016-03-12T07:06:55.343Z,6.45
2016-03-12T07:07:55.282Z,6.42
2016-03-12T07:08:55.223Z,6.27
2016-03-12T07:09:55.178Z,6.44
2016-03-12T07:10:55.118Z,6.42
2016-03-12T07:11:54.903Z,6.38
2016-03-12T07:12:55.014Z,6.44
2016-03-12T07:13:54.954Z,6.38
2016-03-12T07:14:54.878Z,6.39
2016-03-12T07:15:54.835Z,6.36
2016-03-12T07:16:54.775Z,6.31
2016-03-12T07:17:54.700Z,6.3
2016-03-12T07:18:54.640Z,6.11
2016-03-12T07:19:54.628Z,6.33
2016-03-12T07:20:54.552Z,6.35
2016-03-12T07:21:54.475Z,6.27
2016-03-12T07:22:54.416Z,6.39
2016-03-12T07:23:54.388Z,6.35
2016-03-12T07:24:54.313Z,6.26
2016-03-12T07:25:54.252Z,6.38
2016-03-12T07:26:54.193Z,6.44
2016-03-12T07:27:54.133Z,6.35
2016-03-12T07:28:54.089Z,6.33
2016-03-12T07:29:54.013Z,6.36
2016-03-12T07:30:53.969Z,6.39
2016-03-12T07:31:53.910Z,6.24
2016-03-12T07:32:53.849Z,6.3
2016-03-12T07:33:53.649Z,6.38
2016-03-12T07:34:53.745Z,6.27
2016-03-12T07:35:53.686Z,5.91
2016-03-12T07:36:53.610Z,5.99
2016-03-12T07:37:53.644Z,6.14
2016-03-12T07:38:53.537Z,6.3
2016-03-12T07:39:53.462Z,6.36
2016-03-12T07:40:53.387Z,6.36
2016-03-12T07:41:53.342Z,6.41
2016-03-12T07:42:53.299Z,6.33
2016-03-12T07:43:53.239Z,6.36
2016-03-12T07:44:53.163Z,6.38
2016-03-12T07:45:53.087Z,6.2
2016-03-12T07:46:53.059Z,6.26
2016-03-12T07:47:52.984Z,6.17
2016-03-12T07:48:52.923Z,6.35
2016-03-12T07:49:52.880Z,6.42
2016-03-12T07:50:52.819Z,6.39
2016-03-12T07:51:52.760Z,6.44
2016-03-12T07:52:52.731Z,6.39
2016-03-12T07:53:52.640Z,6.44
2016-03-12T07:54:52.581Z,6.51
2016-03-12T07:55:52.380Z,6.54
2016-03-12T07:56:52.461Z,6.45
2016-03-12T07:57:52.432Z,6.39
2016-03-12T07:58:52.372Z,6.41
2016-03-12T07:59:52.297Z,6.36
2016-03-12T08:00:52.268Z,6.39
2016-03-12T08:01:52.208Z,6.44
2016-03-12T08:02:52.132Z,6.56
2016-03-12T08:03:52.074Z,6.39
2016-03-12T08:04:52.029Z,6.41
2016-03-12T08:05:51.985Z,6.45
2016-03-12T08:06:51.926Z,6.41
2016-03-12T08:07:51.866Z,6.45
2016-03-12T08:08:51.868Z,6.51
2016-03-12T08:09:51.793Z,6.56
2016-03-12T08:10:51.686Z,6.41
2016-03-12T08:11:51.626Z,6.56
2016-03-12T08:12:51.567Z,6.57
2016-03-12T08:13:51.523Z,6.49
2016-03-12T08:14:51.447Z,6.6
2016-03-12T08:15:51.387Z,6.63
2016-03-12T08:16:51.359Z,6.6
2016-03-12T08:17:51.283Z,6.51
2016-03-12T08:18:51.223Z,6.66
2016-03-12T08:19:51.148Z,6.51
2016-03-12T08:20:51.119Z,6.66
2016-03-12T08:21:51.059Z,6.42
2016-03-12T08:22:51.031Z,6.51
2016-03-12T08:23:50.955Z,6.45
2016-03-12T08:24:50.880Z,6.41
2016-03-12T08:25:50.820Z,6.46
2016-03-12T08:26:50.760Z,6.51
2016-03-12T08:27:50.747Z,6.39
2016-03-12T08:28:50.672Z,6.41
2016-03-12T08:29:50.580Z,6.46
2016-03-12T08:30:50.537Z,6.42
2016-03-12T08:31:50.477Z,6.56
2016-03-12T08:32:50.433Z,6.51
2016-03-12T08:33:50.373Z,6.46
2016-03-12T08:34:50.297Z,6.38
2016-03-12T08:35:50.254Z,6.22
2016-03-12T08:36:50.193Z,6.39
2016-03-12T08:37:50.134Z,6.45
2016-03-12T08:38:50.105Z,6.57
2016-03-12T08:39:50.015Z,6.62
2016-03-12T08:40:49.985Z,6.59
2016-03-12T08:41:49.910Z,6.63
2016-03-12T08:42:49.835Z,6.6
2016-03-12T08:43:49.790Z,6.64
2016-03-12T08:44:49.730Z,6.72
2016-03-12T08:45:49.686Z,6.78
2016-03-12T08:46:49.611Z,6.85
2016-03-12T08:47:49.551Z,6.82
2016-03-12T08:48:49.522Z,6.89
2016-03-12T08:49:49.447Z,6.92
2016-03-12T08:50:49.419Z,6.95
2016-03-12T08:51:49.343Z,6.99
2016-03-12T08:52:49.283Z,6.99
2016-03-12T08:53:49.208Z,6.89
2016-03-12T08:54:49.180Z,6.92
2016-03-12T08:55:49.119Z,7.03
2016-03-12T08:56:49.091Z,7.02
2016-03-12T08:57:48.999Z,7.06
2016-03-12T08:58:48.972Z,6.99
2016-03-12T08:59:48.896Z,7.02
2016-03-12T09:00:48.852Z,7
2016-03-12T09:01:48.760Z,7.03
2016-03-12T09:02:48.716Z,7.06
2016-03-12T09:03:48.672Z,7.21
2016-03-12T09:04:48.596Z,7.1
2016-03-12T09:05:48.553Z,7.02
2016-03-12T09:06:48.524Z,7.11
2016-03-12T09:07:48.418Z,7.05
2016-03-12T09:08:48.388Z,6.89
2016-03-12T09:09:48.313Z,6.87
2016-03-12T09:10:48.269Z,7
2016-03-12T09:11:48.225Z,7.1
2016-03-12T09:12:48.165Z,6.84
2016-03-12T09:13:48.105Z,6.93
2016-03-12T09:14:48.046Z,6.97
2016-03-12T09:15:47.970Z,7.02
2016-03-12T09:16:47.926Z,7.11
2016-03-12T09:17:47.867Z,6.79
2016-03-12T09:18:47.822Z,6.99
2016-03-12T09:19:47.762Z,7.1
2016-03-12T09:20:47.718Z,7.1
2016-03-12T09:21:47.643Z,7.15
2016-03-12T09:22:47.598Z,7.13
2016-03-12T09:23:47.383Z,7.15
2016-03-12T09:24:47.463Z,7.24
2016-03-12T09:25:47.419Z,7.25
2016-03-12T09:26:47.359Z,7.11
2016-03-12T09:27:47.299Z,7.17
2016-03-12T09:28:47.256Z,7.29
2016-03-12T09:29:47.211Z,7.31
2016-03-12T09:30:47.152Z,7.2
2016-03-12T09:31:47.091Z,7.11
2016-03-12T09:32:47.016Z,7.03
2016-03-12T09:33:46.972Z,7.29
2016-03-12T09:34:46.927Z,7.14
2016-03-12T09:35:46.851Z,7.05
2016-03-12T09:36:46.792Z,6.96
2016-03-12T09:37:46.732Z,7.03
2016-03-12T09:38:46.673Z,7.02
2016-03-12T09:39:46.628Z,7.13
2016-03-12T09:40:46.569Z,7.17
2016-03-12T09:41:46.540Z,7.2
2016-03-12T09:42:46.464Z,7.18
2016-03-12T09:43:46.404Z,7.36
2016-03-12T09:44:46.345Z,7.31
2016-03-12T09:45:46.285Z,7.31
2016-03-12T09:46:46.225Z,7.25
2016-03-12T09:47:46.181Z,7.14
2016-03-12T09:48:46.121Z,7.21
2016-03-12T09:49:46.078Z,7.29
2016-03-12T09:50:46.017Z,7.4
2016-03-12T09:51:45.958Z,7.17
2016-03-12T09:52:45.882Z,7.06
2016-03-12T09:53:45.822Z,7.24
2016-03-12T09:54:45.794Z,7.28
2016-03-12T09:55:45.734Z,7.35
2016-03-12T09:56:45.658Z,7.15
2016-03-12T09:57:45.614Z,7.15
2016-03-12T09:58:45.554Z,7.17
2016-03-12T09:59:45.494Z,7.2
2016-03-12T10:00:45.435Z,7.11
2016-03-12T10:01:45.406Z,7.11
2016-03-12T10:02:45.346Z,7.2
2016-03-12T10:03:45.286Z,7.29
2016-03-12T10:04:45.258Z,7.25
2016-03-12T10:05:45.166Z,7.23
2016-03-12T10:06:45.091Z,7.07
2016-03-12T10:07:45.026Z,7.06
2016-03-12T10:08:44.982Z,7.21
2016-03-12T10:09:44.922Z,7.15
2016-03-12T10:10:44.893Z,7.25
2016-03-12T10:11:44.803Z,7.33
2016-03-12T10:12:44.758Z,7.38
2016-03-12T10:13:44.714Z,7.33
2016-03-12T10:14:44.654Z,7.36
2016-03-12T10:15:44.610Z,7.29
2016-03-12T10:16:44.519Z,7.31
2016-03-12T10:17:44.475Z,7.23
2016-03-12T10:18:44.431Z,7.29
2016-03-12T10:19:44.370Z,7.31
2016-03-12T10:20:44.327Z,7.38
2016-03-12T10:21:44.251Z,7.39
2016-03-12T10:22:44.192Z,7.4
2016-03-12T10:23:44.147Z,7.45
2016-03-12T10:24:44.087Z,7.5
2016-03-12T10:25:44.058Z,7.5
2016-03-12T10:26:43.999Z,7.54
2016-03-12T10:27:43.908Z,7.48
2016-03-12T10:28:43.863Z,7.45
2016-03-12T10:29:43.820Z,7.56
2016-03-12T10:30:43.729Z,7.56
2016-03-12T10:31:43.699Z,7.53
2016-03-12T10:32:43.671Z,7.48
2016-03-12T10:33:43.580Z,7.56
2016-03-12T10:34:43.520Z,7.54
2016-03-12T10:35:43.476Z,7.6
2016-03-12T10:36:43.431Z,7.57
2016-03-12T10:37:43.351Z,7.61
2016-03-12T10:38:43.306Z,7.47
2016-03-12T10:39:43.262Z,7.58
2016-03-12T10:40:43.186Z,7.57
2016-03-12T10:41:43.128Z,7.61
2016-03-12T10:42:43.083Z,7.53
2016-03-12T10:43:42.851Z,7.42
2016-03-12T10:44:42.995Z,7.54
2016-03-12T10:45:42.919Z,7.4
2016-03-12T10:46:42.843Z,7.56
2016-03-12T10:47:42.784Z,7.58
2016-03-12T10:48:42.724Z,7.48
2016-03-12T10:49:42.696Z,7.57
2016-03-12T10:50:42.620Z,7.57
2016-03-12T10:51:42.576Z,7.51
2016-03-12T10:52:42.500Z,7.61
2016-03-12T10:53:42.456Z,7.63
2016-03-12T10:54:42.397Z,7.61
2016-03-12T10:55:42.368Z,7.79
2016-03-12T10:56:42.308Z,7.6
2016-03-12T10:57:42.248Z,7.73
2016-03-12T10:58:42.188Z,7.66
2016-03-12T10:59:42.129Z,7.53
2016-03-12T11:00:42.068Z,7.56
2016-03-12T11:01:42.009Z,7.48
2016-03-12T11:02:41.964Z,7.57
2016-03-12T11:03:41.874Z,7.54
2016-03-12T11:04:41.861Z,7.51
2016-03-12T11:05:41.801Z,7.56
2016-03-12T11:06:41.726Z,7.61
2016-03-12T11:07:41.665Z,7.6
2016-03-12T11:08:41.637Z,7.61
2016-03-12T11:09:41.561Z,7.69
2016-03-12T11:10:41.518Z,7.75
2016-03-12T11:11:41.442Z,7.73
2016-03-12T11:12:41.242Z,7.75
2016-03-12T11:13:41.322Z,7.69
2016-03-12T11:14:41.106Z,7.72
2016-03-12T11:15:41.234Z,7.76
2016-03-12T11:16:41.174Z,7.82
2016-03-12T11:17:41.131Z,7.75
2016-03-12T11:18:41.055Z,7.7
2016-03-12T11:19:40.838Z,7.77
2016-03-12T11:20:40.950Z,7.8
2016-03-12T11:21:40.991Z,7.63
2016-03-12T11:22:40.909Z,7.56
2016-03-12T11:23:40.770Z,7.63
2016-03-12T11:24:41.024Z,7.75
2016-03-12T11:25:40.717Z,7.79
2016-03-12T11:26:40.594Z,7.83
2016-03-12T11:27:40.550Z,7.6
2016-03-12T11:28:40.522Z,7.67
2016-03-12T11:29:40.447Z,7.69
2016-03-12T11:30:40.387Z,7.73
2016-03-12T11:31:40.342Z,7.69
2016-03-12T11:32:40.283Z,7.76
2016-03-12T11:33:40.254Z,7.83
2016-03-12T11:34:40.163Z,7.61
2016-03-12T11:35:40.104Z,7.56
2016-03-12T11:36:40.059Z,7.56
2016-03-12T11:37:39.999Z,7.61
2016-03-12T11:38:39.939Z,7.57
2016-03-12T11:39:39.896Z,7.54
2016-03-12T11:40:39.820Z,7.42
2016-03-12T11:41:39.792Z,7.53
2016-03-12T11:42:39.700Z,7.45
2016-03-12T11:43:39.672Z,7.47
2016-03-12T11:44:39.596Z,7.53
2016-03-12T11:45:39.536Z,7.56
2016-03-12T11:46:39.493Z,7.6
2016-03-12T11:47:39.417Z,7.51
2016-03-12T11:48:39.373Z,7.5
2016-03-12T11:49:39.344Z,7.57
2016-03-12T11:50:39.253Z,7.69
2016-03-12T11:51:39.209Z,7.61
2016-03-12T11:52:39.164Z,7.73
2016-03-12T11:53:39.089Z,7.72
2016-03-12T11:54:39.045Z,7.72
2016-03-12T11:55:38.985Z,7.73
2016-03-12T11:56:38.925Z,7.73
2016-03-12T11:57:38.881Z,7.57
2016-03-12T11:58:38.822Z,7.63
2016-03-12T11:59:38.761Z,7.77
2016-03-12T12:00:38.702Z,7.73
2016-03-12T12:01:38.642Z,7.57
2016-03-12T12:02:38.599Z,7.5
2016-03-12T12:03:38.522Z,7.61
2016-03-12T12:04:38.478Z,7.67
2016-03-12T12:05:38.418Z,7.6
2016-03-12T12:06:38.374Z,7.6
2016-03-12T12:07:38.314Z,7.48
2016-03-12T12:08:38.240Z,7.33
2016-03-12T12:09:38.179Z,7.48
2016-03-12T12:10:38.151Z,7.58
2016-03-12T12:11:38.075Z,7.58
2016-03-12T12:12:38.046Z,7.7
2016-03-12T12:13:37.987Z,7.69
2016-03-12T12:14:37.926Z,7.83
2016-03-12T12:15:37.867Z,7.79
2016-03-12T12:16:37.807Z,7.8
2016-03-12T12:17:37.747Z,7.57
2016-03-12T12:18:37.719Z,7.75
2016-03-12T12:19:37.628Z,7.79
2016-03-12T12:20:37.584Z,7.67
2016-03-12T12:21:37.540Z,7.76
2016-03-12T12:22:37.480Z,7.88
2016-03-12T12:23:38.014Z,7.77
2016-03-12T12:24:37.345Z,7.63
2016-03-12T12:25:37.331Z,7.77
2016-03-12T12:26:37.255Z,7.76
2016-03-12T12:27:37.197Z,7.63
2016-03-12T12:28:37.136Z,7.56
2016-03-12T12:29:37.092Z,7.6
2016-03-12T12:30:37.017Z,7.69
2016-03-12T12:31:36.972Z,7.77
2016-03-12T12:32:36.913Z,7.58
2016-03-12T12:33:36.852Z,7.67
2016-03-12T12:34:36.810Z,7.69
2016-03-12T12:35:36.733Z,7.73
2016-03-12T12:36:36.690Z,7.7
2016-03-12T12:37:36.645Z,7.67
2016-03-12T12:38:36.570Z,7.53
2016-03-12T12:39:36.509Z,7.57
2016-03-12T12:40:36.450Z,7.63
2016-03-12T12:41:36.406Z,7.5
2016-03-12T12:42:36.362Z,7.6
2016-03-12T12:43:36.301Z,7.61
2016-03-12T12:44:36.226Z,7.73
2016-03-12T12:45:36.182Z,7.76
2016-03-12T12:46:36.137Z,7.8
2016-03-12T12:47:36.062Z,7.67
2016-03-12T12:48:36.064Z,7.77
2016-03-12T12:49:35.943Z,7.83
2016-03-12T12:50:35.914Z,7.91
2016-03-12T12:51:35.855Z,7.94
2016-03-12T12:52:35.889Z,7.93
2016-03-12T12:53:35.719Z,7.95
2016-03-12T12:54:35.675Z,8
2016-03-12T12:55:35.616Z,7.94
2016-03-12T12:56:35.572Z,7.93
2016-03-12T12:57:35.496Z,7.98
2016-03-12T12:58:35.482Z,8.05
2016-03-12T12:59:35.376Z,7.85
2016-03-12T13:00:35.316Z,7.91
2016-03-12T13:01:35.303Z,7.93
2016-03-12T13:02:35.228Z,7.77
2016-03-12T13:03:35.169Z,7.75
2016-03-12T13:04:35.171Z,7.79
2016-03-12T13:05:35.063Z,7.91
2016-03-12T13:06:35.005Z,7.76
2016-03-12T13:07:34.944Z,7.8
2016-03-12T13:08:34.901Z,7.87
2016-03-12T13:09:34.871Z,7.95
2016-03-12T13:10:34.796Z,7.79
2016-03-12T13:11:34.721Z,7.95
2016-03-12T13:12:34.676Z,8
2016-03-12T13:13:34.618Z,7.95
2016-03-12T13:14:34.557Z,8.1
2016-03-12T13:15:34.513Z,7.95
2016-03-12T13:16:34.437Z,8.1
2016-03-12T13:17:34.393Z,8.09
2016-03-12T13:18:34.381Z,7.87
2016-03-12T13:19:34.289Z,7.82
2016-03-12T13:20:34.229Z,7.87